Time;durP1;ratioP1;P1;durP2;ratioP2;P2;SDS_P1;SDS_P2;PMS_P1;PMS_P2;Temp;Humidity;BMP_temperature;BMP_pressure;BME280_temperature;BME280_humidity;BME280_pressure;Samples;Min_cycle;Max_cycle;Signal;HPM_P1;HPM_P2
2021/05/22 07:31:15;;;;;;;5.72;0.93;;;;;;;;;;5150190;27;20289;-76
2021/05/22 07:33:42;;;;;;;4.07;1.08;;;;;;;;;;5150726;27;20116;-76
2021/05/22 07:36:11;;;;;;;6.43;1.00;;;;;;;;;;5151379;27;20109;-76
2021/05/22 07:38:40;;;;;;;3.63;0.90;;;;;;;;;;5151269;27;20026;-75
2021/05/22 07:41:06;;;;;;;5.95;1.00;;;;;;;;;;5151303;27;20031;-77
2021/05/22 07:43:32;;;;;;;8.10;1.17;;;;;;;;;;5154341;27;20063;-78
2021/05/22 07:45:58;;;;;;;4.38;1.10;;;;;;;;;;5155301;27;20027;-78
2021/05/22 07:48:27;;;;;;;3.50;0.90;;;;;;;;;;5152929;27;20027;-77
2021/05/22 07:50:53;;;;;;;3.60;0.68;;;;;;;;;;5149528;27;20471;-76
2021/05/22 07:53:20;;;;;;;5.15;0.88;;;;;;;;;;5148181;27;20019;-76
2021/05/22 07:55:46;;;;;;;2.28;0.82;;;;;;;;;;5150117;27;20034;-76
2021/05/22 07:58:15;;;;;;;4.88;1.20;;;;;;;;;;5149778;27;20023;-77
2021/05/22 08:00:41;;;;;;;4.25;0.90;;;;;;;;;;5145305;27;20022;-77
2021/05/22 08:03:07;;;;;;;6.40;1.23;;;;;;;;;;5142187;27;20434;-77
2021/05/22 08:05:33;;;;;;;4.43;0.88;;;;;;;;;;5139840;27;20027;-76
2021/05/22 08:07:59;;;;;;;4.78;0.75;;;;;;;;;;5138752;27;20497;-75
2021/05/22 08:10:25;;;;;;;7.63;0.85;;;;;;;;;;5137610;27;20056;-75
2021/05/22 08:12:51;;;;;;;4.00;1.00;;;;;;;;;;5139988;27;20160;-73
2021/05/22 08:15:17;;;;;;;4.75;0.70;;;;;;;;;;5139262;27;20110;-74
2021/05/22 08:17:44;;;;;;;6.78;1.13;;;;;;;;;;5138357;27;20115;-73
2021/05/22 08:20:11;;;;;;;4.32;0.85;;;;;;;;;;5135376;27;20034;-73
2021/05/22 08:22:37;;;;;;;5.97;0.85;;;;;;;;;;5134561;27;20023;-76
2021/05/22 08:25:04;;;;;;;4.03;1.20;;;;;;;;;;5138639;27;20494;-74
2021/05/22 08:27:30;;;;;;;6.90;0.90;;;;;;;;;;5136691;27;20398;-75
2021/05/22 08:29:57;;;;;;;6.07;1.15;;;;;;;;;;5139776;27;20027;-75
2021/05/22 08:32:24;;;;;;;3.22;0.95;;;;;;;;;;5138364;27;20086;-75
2021/05/22 08:34:50;;;;;;;8.85;1.05;;;;;;;;;;5137533;27;20015;-75
2021/05/22 08:37:19;;;;;;;4.93;1.08;;;;;;;;;;5141119;27;20384;-73
2021/05/22 08:39:45;;;;;;;4.43;0.85;;;;;;;;;;5143843;27;20159;-76
2021/05/22 08:42:15;;;;;;;5.38;0.73;;;;;;;;;;5137643;27;20028;-75
2021/05/22 08:44:42;;;;;;;3.55;0.93;;;;;;;;;;5135201;27;20034;-75
2021/05/22 08:47:08;;;;;;;5.10;0.73;;;;;;;;;;5134877;27;20084;-75
2021/05/22 08:49:40;;;;;;;7.15;0.85;;;;;;;;;;5119412;27;20481;-76
2021/05/22 08:52:06;;;;;;;;;;;;;;;;;;5115132;28;20068;-76
2021/05/22 08:54:32;;;;;;;5.13;0.70;;;;;;;;;;5114587;28;19904;-75
2021/05/22 08:56:58;;;;;;;2.72;0.70;;;;;;;;;;5134605;27;20019;-75
2021/05/22 08:59:25;;;;;;;4.45;0.68;;;;;;;;;;5134874;27;20528;-75
2021/05/22 09:01:51;;;;;;;3.63;0.95;;;;;;;;;;5133303;27;20037;-76
2021/05/22 09:04:17;;;;;;;3.28;0.55;;;;;;;;;;5133837;27;20026;-75
2021/05/22 09:07:03;;;;;;;7.63;0.95;;;;;;;;;;5133633;27;20418;-76
2021/05/22 09:09:42;;;;;;;3.38;0.98;;;;;;;;;;5134311;27;20031;-76
2021/05/22 09:12:08;;;;;;;5.90;0.90;;;;;;;;;;5134557;27;20019;-76
2021/05/22 09:14:41;;;;;;;5.20;1.30;;;;;;;;;;5134398;27;20488;-76
2021/05/22 09:17:08;;;;;;;3.83;0.80;;;;;;;;;;5122107;27;20437;-75
2021/05/22 09:19:33;;;;;;;4.45;0.55;;;;;;;;;;5113457;28;20512;-75
2021/05/22 09:22:11;;;;;;;5.40;0.73;;;;;;;;;;5114015;28;20039;-76
2021/05/22 09:24:54;;;;;;;7.35;1.20;;;;;;;;;;5113849;28;20023;-73
2021/05/22 09:27:20;;;;;;;;;;;;;;;;;;5128426;27;20589;-74
2021/05/22 09:29:46;;;;;;;6.35;0.77;;;;;;;;;;5121559;27;20573;-78
2021/05/22 09:32:15;;;;;;;6.63;0.60;;;;;;;;;;5124525;27;20471;-76
2021/05/22 09:34:41;;;;;;;5.25;1.20;;;;;;;;;;5123577;27;20019;-76
2021/05/22 09:37:11;;;;;;;5.65;1.10;;;;;;;;;;5122354;27;20019;-75
2021/05/22 09:39:45;;;;;;;5.15;0.60;;;;;;;;;;5121492;27;20055;-79
2021/05/22 09:42:11;;;;;;;7.18;0.65;;;;;;;;;;5118242;28;20034;-77
2021/05/22 09:44:37;;;;;;;5.28;0.70;;;;;;;;;;5125194;27;20503;-75
2021/05/22 09:47:04;;;;;;;8.68;0.95;;;;;;;;;;5135226;27;20022;-77
2021/05/22 09:49:32;;;;;;;6.28;1.40;;;;;;;;;;5133792;27;20030;-75
2021/05/22 09:52:09;;;;;;;5.55;1.20;;;;;;;;;;5134192;27;20016;-76
2021/05/22 09:54:47;;;;;;;7.68;0.85;;;;;;;;;;5133361;27;20097;-76
2021/05/22 09:57:20;;;;;;;4.72;0.80;;;;;;;;;;5113354;28;20020;-75
2021/05/22 10:00:23;;;;;;;4.38;0.68;;;;;;;;;;5112537;28;20023;-76
2021/05/22 10:02:49;;;;;;;;;;;;;;;;;;5050953;28;20111;-76
2021/05/22 10:05:15;;;;;;;4.30;0.70;;;;;;;;;;5101695;28;19945;-76
2021/05/22 10:07:41;;;;;;;3.13;0.77;;;;;;;;;;5118677;27;20015;-76
2021/05/22 10:10:08;;;;;;;5.25;0.70;;;;;;;;;;5131882;27;20559;-75
2021/05/22 10:12:36;;;;;;;3.92;1.05;;;;;;;;;;5131727;27;20031;-76
2021/05/22 10:15:03;;;;;;;2.40;0.57;;;;;;;;;;5116545;27;20365;-76
2021/05/22 10:17:29;;;;;;;9.10;0.95;;;;;;;;;;5113147;28;20028;-77
2021/05/22 10:19:55;;;;;;;3.95;0.77;;;;;;;;;;5128013;27;20027;-75
2021/05/22 10:22:21;;;;;;;4.53;0.90;;;;;;;;;;5133364;27;20094;-76
2021/05/22 10:24:48;;;;;;;6.00;0.77;;;;;;;;;;5121262;27;20545;-75
2021/05/22 10:27:14;;;;;;;4.28;0.80;;;;;;;;;;5133227;27;20579;-75
2021/05/22 10:29:40;;;;;;;2.08;0.68;;;;;;;;;;5118835;27;20115;-75
2021/05/22 10:32:07;;;;;;;6.43;0.60;;;;;;;;;;5120101;27;20084;-75
2021/05/22 10:34:36;;;;;;;2.28;0.60;;;;;;;;;;5122703;27;20475;-75
2021/05/22 10:37:03;;;;;;;3.35;1.10;;;;;;;;;;5119912;27;20038;-75
2021/05/22 10:39:40;;;;;;;2.88;0.88;;;;;;;;;;5120227;27;20027;-75
2021/05/22 10:42:10;;;;;;;4.18;0.68;;;;;;;;;;5122952;27;20027;-76
2021/05/22 10:44:39;;;;;;;3.05;0.88;;;;;;;;;;5118655;27;20023;-76
2021/05/22 10:47:12;;;;;;;4.07;0.98;;;;;;;;;;5119587;27;20441;-76
2021/05/22 10:49:48;;;;;;;5.15;0.75;;;;;;;;;;5120241;27;20031;-76
2021/05/22 10:52:17;;;;;;;3.10;0.80;;;;;;;;;;5120570;27;20131;-76
2021/05/22 10:55:00;;;;;;;3.40;0.50;;;;;;;;;;5118898;27;20115;-75
2021/05/22 10:57:26;;;;;;;3.22;0.57;;;;;;;;;;5120559;27;20483;-75
2021/05/22 11:00:11;;;;;;;5.32;0.80;;;;;;;;;;5119027;27;20035;-76
2021/05/22 11:02:39;;;;;;;6.20;0.70;;;;;;;;;;5121128;27;20055;-75
2021/05/22 11:08:10;;;;;;;2.53;0.70;;;;;;;;;;5121255;27;20502;-76
2021/05/22 11:10:36;;;;;;;3.38;0.55;;;;;;;;;;5110979;27;20067;-76
2021/05/22 11:13:02;;;;;;;4.65;1.00;;;;;;;;;;5122242;27;20024;-76
2021/05/22 11:15:42;;;;;;;5.82;0.85;;;;;;;;;;5120013;27;20027;-75
2021/05/22 11:18:09;;;;;;;4.05;0.73;;;;;;;;;;5119838;27;20480;-76
2021/05/22 11:20:35;;;;;;;1.77;0.43;;;;;;;;;;5117858;27;20027;-76
2021/05/22 11:23:01;;;;;;;4.82;0.68;;;;;;;;;;5122176;27;20026;-75
2021/05/22 11:25:43;;;;;;;2.72;0.50;;;;;;;;;;5131131;27;20088;-75
2021/05/22 11:28:12;;;;;;;2.75;0.60;;;;;;;;;;5131523;27;20023;-76
2021/05/22 11:30:38;;;;;;;2.83;0.40;;;;;;;;;;5130883;28;20035;-75
2021/05/22 11:33:03;;;;;;;1.92;0.43;;;;;;;;;;5132371;27;20023;-75
2021/05/22 11:35:30;;;;;;;5.38;0.70;;;;;;;;;;5131879;28;20090;-75
2021/05/22 11:38:21;;;;;;;2.22;0.50;;;;;;;;;;5132016;27;20111;-75
2021/05/22 11:40:47;;;;;;;2.67;0.32;;;;;;;;;;5110800;28;20024;-75
2021/05/22 11:43:20;;;;;;;6.25;0.50;;;;;;;;;;5112242;28;20112;-76
2021/05/22 11:45:46;;;;;;;2.38;0.40;;;;;;;;;;5132154;27;20058;-76
2021/05/22 11:48:21;;;;;;;3.13;0.70;;;;;;;;;;5130947;27;20055;-75
2021/05/22 11:50:47;;;;;;;2.08;0.45;;;;;;;;;;5110844;28;20020;-76
2021/05/22 11:53:17;;;;;;;2.17;0.47;;;;;;;;;;5112084;28;20016;-75
2021/05/22 11:55:44;;;;;;;1.45;0.45;;;;;;;;;;5131960;27;20024;-76
2021/05/22 11:58:13;;;;;;;1.67;0.60;;;;;;;;;;5130939;27;20015;-76
2021/05/22 12:00:40;;;;;;;3.40;0.55;;;;;;;;;;5115159;27;20410;-76
2021/05/22 12:03:07;;;;;;;2.95;0.77;;;;;;;;;;5131648;27;20486;-75
2021/05/22 12:05:44;;;;;;;4.70;0.57;;;;;;;;;;5111366;27;20027;-76
2021/05/22 12:08:21;;;;;;;3.05;0.30;;;;;;;;;;5112342;28;20030;-76
2021/05/22 12:10:47;;;;;;;3.08;1.05;;;;;;;;;;5144948;27;20023;-75
2021/05/22 12:13:13;;;;;;;3.45;0.60;;;;;;;;;;5151015;27;20029;-76
2021/05/22 12:15:42;;;;;;;1.33;0.47;;;;;;;;;;5132464;27;20024;-76
2021/05/22 12:18:08;;;;;;;4.22;0.57;;;;;;;;;;5142563;27;20015;-76
2021/05/22 12:21:03;;;;;;;2.88;0.70;;;;;;;;;;5135061;27;20432;-76
2021/05/22 12:23:31;;;;;;;1.75;0.45;;;;;;;;;;5119348;27;20032;-75
2021/05/22 12:25:58;;;;;;;3.08;0.38;;;;;;;;;;5114985;28;20696;-75
2021/05/22 12:28:24;;;;;;;3.40;0.45;;;;;;;;;;5116738;27;20048;-75
2021/05/22 12:30:55;;;;;;;2.33;0.65;;;;;;;;;;5134732;27;20038;-75
2021/05/22 12:33:21;;;;;;;3.35;0.50;;;;;;;;;;5133313;27;20035;-75
2021/05/22 12:35:47;;;;;;;3.05;0.60;;;;;;;;;;5115047;28;20030;-75
2021/05/22 12:38:14;;;;;;;1.55;0.45;;;;;;;;;;5115641;27;20510;-74
2021/05/22 12:40:48;;;;;;;1.75;0.40;;;;;;;;;;5135105;27;20471;-75
2021/05/22 12:43:14;;;;;;;2.65;0.68;;;;;;;;;;5134884;27;20035;-76
2021/05/22 12:45:44;;;;;;;1.23;0.30;;;;;;;;;;5114858;28;20027;-75
2021/05/22 12:48:26;;;;;;;2.08;0.40;;;;;;;;;;5114713;28;20020;-75
2021/05/22 12:50:52;;;;;;;1.67;0.45;;;;;;;;;;5130793;27;20533;-75
2021/05/22 12:53:28;;;;;;;1.27;0.40;;;;;;;;;;5131052;27;20031;-76
2021/05/22 12:56:05;;;;;;;0.98;0.30;;;;;;;;;;5113576;28;20095;-77
2021/05/22 12:58:31;;;;;;;1.10;0.20;;;;;;;;;;5117769;27;20099;-77
2021/05/22 13:01:02;;;;;;;3.88;0.30;;;;;;;;;;5133218;27;20024;-73
2021/05/22 13:03:38;;;;;;;2.85;0.25;;;;;;;;;;5133184;27;20031;-77
2021/05/22 13:06:04;;;;;;;1.17;0.22;;;;;;;;;;5113253;28;20035;-76
2021/05/22 13:08:30;;;;;;;1.35;0.30;;;;;;;;;;5117167;27;20027;-76
2021/05/22 13:11:13;;;;;;;1.13;0.28;;;;;;;;;;5132925;27;20031;-76
2021/05/22 13:13:39;;;;;;;2.70;0.30;;;;;;;;;;5129773;27;20480;-76
2021/05/22 13:16:12;;;;;;;1.80;0.47;;;;;;;;;;5127116;27;20395;-76
2021/05/22 13:18:39;;;;;;;3.70;0.30;;;;;;;;;;5133897;27;20057;-75
2021/05/22 13:21:07;;;;;;;0.82;0.40;;;;;;;;;;5134170;27;20019;-76
2021/05/22 13:23:36;;;;;;;4.88;0.50;;;;;;;;;;5133533;27;20027;-75
2021/05/22 13:26:02;;;;;;;2.03;0.38;;;;;;;;;;5134827;27;20384;-76
2021/05/22 13:28:32;;;;;;;1.30;0.38;;;;;;;;;;5132687;27;20091;-75
